sensor_id;sensor_type;location;lat;lon;timestamp;pressure;altitude;pressure_sealevel;temperature
70417;BMP280;57839;51.332;12.410;2024-02-23T00:00:47;97392.19;;;13.41
70417;BMP280;57839;51.332;12.410;2024-02-23T00:03:12;97383.06;;;13.39
70417;BMP280;57839;51.332;12.410;2024-02-23T00:05:38;97383.81;;;13.39
70417;BMP280;57839;51.332;12.410;2024-02-23T00:08:03;97373.03;;;13.39
70417;BMP280;57839;51.332;12.410;2024-02-23T00:10:29;97390.84;;;13.37
70417;BMP280;57839;51.332;12.410;2024-02-23T00:12:54;97380.09;;;13.37
70417;BMP280;57839;51.332;12.410;2024-02-23T00:15:20;97392.03;;;13.36
70417;BMP280;57839;51.332;12.410;2024-02-23T00:17:45;97385.91;;;13.35
70417;BMP280;57839;51.332;12.410;2024-02-23T00:20:11;97427.78;;;13.36
70417;BMP280;57839;51.332;12.410;2024-02-23T00:22:36;97432.56;;;13.41
70417;BMP280;57839;51.332;12.410;2024-02-23T00:25:02;97440.63;;;13.41
70417;BMP280;57839;51.332;12.410;2024-02-23T00:27:27;97453.34;;;13.41
70417;BMP280;57839;51.332;12.410;2024-02-23T00:29:52;97483.25;;;13.43
70417;BMP280;57839;51.332;12.410;2024-02-23T00:32:18;97447.53;;;13.42
70417;BMP280;57839;51.332;12.410;2024-02-23T00:34:43;97444.34;;;13.44
70417;BMP280;57839;51.332;12.410;2024-02-23T00:37:09;97480.41;;;13.46
70417;BMP280;57839;51.332;12.410;2024-02-23T00:39:34;97485.50;;;13.44
70417;BMP280;57839;51.332;12.410;2024-02-23T00:41:59;97464.41;;;13.43
70417;BMP280;57839;51.332;12.410;2024-02-23T00:44:25;97468.75;;;13.40
70417;BMP280;57839;51.332;12.410;2024-02-23T00:46:50;97478.31;;;13.41
70417;BMP280;57839;51.332;12.410;2024-02-23T00:49:16;97486.41;;;13.41
70417;BMP280;57839;51.332;12.410;2024-02-23T00:51:42;97486.69;;;13.34
70417;BMP280;57839;51.332;12.410;2024-02-23T00:54:08;97499.44;;;13.34
70417;BMP280;57839;51.332;12.410;2024-02-23T00:56:34;97486.84;;;13.31
70417;BMP280;57839;51.332;12.410;2024-02-23T00:58:59;97510.66;;;13.23
70417;BMP280;57839;51.332;12.410;2024-02-23T01:01:24;97489.69;;;13.18
70417;BMP280;57839;51.332;12.410;2024-02-23T01:03:51;97505.53;;;13.16
70417;BMP280;57839;51.332;12.410;2024-02-23T01:06:17;97484.16;;;13.13
70417;BMP280;57839;51.332;12.410;2024-02-23T01:08:42;97487.78;;;13.10
70417;BMP280;57839;51.332;12.410;2024-02-23T01:11:08;97500.31;;;13.13
70417;BMP280;57839;51.332;12.410;2024-02-23T01:13:33;97517.97;;;13.05
70417;BMP280;57839;51.332;12.410;2024-02-23T01:15:59;97527.50;;;13.06
70417;BMP280;57839;51.332;12.410;2024-02-23T01:18:24;97548.91;;;13.09
70417;BMP280;57839;51.332;12.410;2024-02-23T01:20:49;97548.91;;;13.09
70417;BMP280;57839;51.332;12.410;2024-02-23T01:23:15;97594.06;;;13.05
70417;BMP280;57839;51.332;12.410;2024-02-23T01:25:40;97598.69;;;13.05
70417;BMP280;57839;51.332;12.410;2024-02-23T01:28:06;97609.44;;;13.05
70417;BMP280;57839;51.332;12.410;2024-02-23T01:30:31;97609.44;;;13.05
70417;BMP280;57839;51.332;12.410;2024-02-23T01:32:56;97626.91;;;13.00
70417;BMP280;57839;51.332;12.410;2024-02-23T01:35:22;97614.22;;;13.01
70417;BMP280;57839;51.332;12.410;2024-02-23T01:37:48;97621.53;;;13.00
70417;BMP280;57839;51.332;12.410;2024-02-23T01:40:13;97633.97;;;12.98
70417;BMP280;57839;51.332;12.410;2024-02-23T01:42:38;97639.63;;;13.00
70417;BMP280;57839;51.332;12.410;2024-02-23T01:45:04;97652.91;;;12.94
70417;BMP280;57839;51.332;12.410;2024-02-23T01:47:29;97670.72;;;12.92
70417;BMP280;57839;51.332;12.410;2024-02-23T01:49:55;97654.69;;;12.88
70417;BMP280;57839;51.332;12.410;2024-02-23T01:52:22;97674.69;;;12.87
70417;BMP280;57839;51.332;12.410;2024-02-23T01:54:48;97666.34;;;12.85
70417;BMP280;57839;51.332;12.410;2024-02-23T01:57:14;97664.38;;;12.86
70417;BMP280;57839;51.332;12.410;2024-02-23T01:59:39;97663.34;;;12.83
70417;BMP280;57839;51.332;12.410;2024-02-23T02:02:06;97680.34;;;12.80
70417;BMP280;57839;51.332;12.410;2024-02-23T02:04:31;97675.88;;;12.77
70417;BMP280;57839;51.332;12.410;2024-02-23T02:06:59;97690.94;;;12.74
70417;BMP280;57839;51.332;12.410;2024-02-23T02:09:26;97680.84;;;12.66
70417;BMP280;57839;51.332;12.410;2024-02-23T02:11:51;97689.19;;;12.59
70417;BMP280;57839;51.332;12.410;2024-02-23T02:14:17;97696.34;;;12.53
70417;BMP280;57839;51.332;12.410;2024-02-23T02:16:43;97715.13;;;12.44
70417;BMP280;57839;51.332;12.410;2024-02-23T02:19:09;97711.66;;;12.43
70417;BMP280;57839;51.332;12.410;2024-02-23T02:21:34;97720.28;;;12.38
70417;BMP280;57839;51.332;12.410;2024-02-23T02:24:00;97744.63;;;12.35
70417;BMP280;57839;51.332;12.410;2024-02-23T02:26:25;97775.16;;;12.28
70417;BMP280;57839;51.332;12.410;2024-02-23T02:28:50;97746.28;;;12.20
70417;BMP280;57839;51.332;12.410;2024-02-23T02:31:17;97760.16;;;12.18
70417;BMP280;57839;51.332;12.410;2024-02-23T02:33:43;97769.97;;;12.12
70417;BMP280;57839;51.332;12.410;2024-02-23T02:36:08;97762.88;;;12.06
70417;BMP280;57839;51.332;12.410;2024-02-23T02:38:34;97765.69;;;12.02
70417;BMP280;57839;51.332;12.410;2024-02-23T02:40:59;97775.94;;;11.95
70417;BMP280;57839;51.332;12.410;2024-02-23T02:43:26;97773.75;;;11.89
70417;BMP280;57839;51.332;12.410;2024-02-23T02:45:51;97773.56;;;11.84
70417;BMP280;57839;51.332;12.410;2024-02-23T02:48:17;97789.47;;;11.78
70417;BMP280;57839;51.332;12.410;2024-02-23T02:50:42;97792.72;;;11.73
70417;BMP280;57839;51.332;12.410;2024-02-23T02:53:07;97800.78;;;11.73
70417;BMP280;57839;51.332;12.410;2024-02-23T02:55:33;97802.91;;;11.66
70417;BMP280;57839;51.332;12.410;2024-02-23T02:57:58;97824.47;;;11.62
70417;BMP280;57839;51.332;12.410;2024-02-23T03:00:24;97814.16;;;11.61
70417;BMP280;57839;51.332;12.410;2024-02-23T03:02:49;97828.06;;;11.59
70417;BMP280;57839;51.332;12.410;2024-02-23T03:05:15;97825.78;;;11.58
70417;BMP280;57839;51.332;12.410;2024-02-23T03:07:40;97828.66;;;11.51
70417;BMP280;57839;51.332;12.410;2024-02-23T03:10:06;97837.16;;;11.49
70417;BMP280;57839;51.332;12.410;2024-02-23T03:12:31;97821.06;;;11.49
70417;BMP280;57839;51.332;12.410;2024-02-23T03:14:57;97840.47;;;11.41
70417;BMP280;57839;51.332;12.410;2024-02-23T03:17:23;97841.44;;;11.34
70417;BMP280;57839;51.332;12.410;2024-02-23T03:19:48;97848.41;;;11.32
70417;BMP280;57839;51.332;12.410;2024-02-23T03:22:15;97851.53;;;11.30
70417;BMP280;57839;51.332;12.410;2024-02-23T03:24:40;97860.00;;;11.29
70417;BMP280;57839;51.332;12.410;2024-02-23T03:27:06;97875.44;;;11.25
70417;BMP280;57839;51.332;12.410;2024-02-23T03:29:31;97868.56;;;11.24
70417;BMP280;57839;51.332;12.410;2024-02-23T03:31:57;97894.75;;;11.20
70417;BMP280;57839;51.332;12.410;2024-02-23T03:34:22;97904.16;;;11.11
70417;BMP280;57839;51.332;12.410;2024-02-23T03:36:47;97889.34;;;11.07
70417;BMP280;57839;51.332;12.410;2024-02-23T03:39:13;97888.59;;;11.06
70417;BMP280;57839;51.332;12.410;2024-02-23T03:41:38;97906.34;;;11.00
70417;BMP280;57839;51.332;12.410;2024-02-23T03:44:04;97912.41;;;10.88
70417;BMP280;57839;51.332;12.410;2024-02-23T03:46:29;97910.34;;;10.80
70417;BMP280;57839;51.332;12.410;2024-02-23T03:48:55;97916.72;;;10.70
70417;BMP280;57839;51.332;12.410;2024-02-23T03:51:20;97919.91;;;10.65
70417;BMP280;57839;51.332;12.410;2024-02-23T03:53:46;97939.34;;;10.53
70417;BMP280;57839;51.332;12.410;2024-02-23T03:56:12;97931.41;;;10.49
70417;BMP280;57839;51.332;12.410;2024-02-23T03:58:38;97934.69;;;10.41
70417;BMP280;57839;51.332;12.410;2024-02-23T04:01:03;97977.75;;;10.30
70417;BMP280;57839;51.332;12.410;2024-02-23T04:03:29;97947.34;;;10.20
70417;BMP280;57839;51.332;12.410;2024-02-23T04:05:54;97958.06;;;10.20
70417;BMP280;57839;51.332;12.410;2024-02-23T04:08:19;97970.44;;;10.14
70417;BMP280;57839;51.332;12.410;2024-02-23T04:10:45;97985.16;;;10.06
70417;BMP280;57839;51.332;12.410;2024-02-23T04:13:11;98004.91;;;9.96
70417;BMP280;57839;51.332;12.410;2024-02-23T04:15:39;97999.63;;;9.93
70417;BMP280;57839;51.332;12.410;2024-02-23T04:18:04;97996.59;;;9.91
70417;BMP280;57839;51.332;12.410;2024-02-23T04:20:29;98022.34;;;9.85
70417;BMP280;57839;51.332;12.410;2024-02-23T04:22:55;98031.59;;;9.80
70417;BMP280;57839;51.332;12.410;2024-02-23T04:25:20;98024.41;;;9.77
70417;BMP280;57839;51.332;12.410;2024-02-23T04:27:46;98026.38;;;9.73
70417;BMP280;57839;51.332;12.410;2024-02-23T04:30:11;98021.09;;;9.70
70417;BMP280;57839;51.332;12.410;2024-02-23T04:32:37;98033.44;;;9.64
70417;BMP280;57839;51.332;12.410;2024-02-23T04:35:02;98030.06;;;9.59
70417;BMP280;57839;51.332;12.410;2024-02-23T04:37:28;98035.09;;;9.57
70417;BMP280;57839;51.332;12.410;2024-02-23T04:39:53;98035.63;;;9.49
70417;BMP280;57839;51.332;12.410;2024-02-23T04:42:18;98035.22;;;9.50
70417;BMP280;57839;51.332;12.410;2024-02-23T04:44:44;98033.78;;;9.46
70417;BMP280;57839;51.332;12.410;2024-02-23T04:47:09;98046.78;;;9.44
70417;BMP280;57839;51.332;12.410;2024-02-23T04:49:34;98054.03;;;9.43
70417;BMP280;57839;51.332;12.410;2024-02-23T04:52:00;98050.72;;;9.39
70417;BMP280;57839;51.332;12.410;2024-02-23T04:54:25;98072.50;;;9.38
70417;BMP280;57839;51.332;12.410;2024-02-23T04:56:51;98077.50;;;9.36
70417;BMP280;57839;51.332;12.410;2024-02-23T04:59:16;98087.09;;;9.33
70417;BMP280;57839;51.332;12.410;2024-02-23T05:01:41;98089.06;;;9.29
70417;BMP280;57839;51.332;12.410;2024-02-23T05:04:08;98095.94;;;9.30
70417;BMP280;57839;51.332;12.410;2024-02-23T05:06:33;98100.13;;;9.31
70417;BMP280;57839;51.332;12.410;2024-02-23T05:08:58;98101.34;;;9.27
70417;BMP280;57839;51.332;12.410;2024-02-23T05:11:24;98107.03;;;9.29
70417;BMP280;57839;51.332;12.410;2024-02-23T05:13:49;98107.44;;;9.27
70417;BMP280;57839;51.332;12.410;2024-02-23T05:16:15;98114.44;;;9.21
70417;BMP280;57839;51.332;12.410;2024-02-23T05:18:40;98099.91;;;9.22
70417;BMP280;57839;51.332;12.410;2024-02-23T05:21:07;98150.00;;;9.18
70417;BMP280;57839;51.332;12.410;2024-02-23T05:23:32;98087.44;;;9.12
70417;BMP280;57839;51.332;12.410;2024-02-23T05:25:57;98121.78;;;9.14
70417;BMP280;57839;51.332;12.410;2024-02-23T05:28:23;98112.31;;;9.09
70417;BMP280;57839;51.332;12.410;2024-02-23T05:30:48;98109.97;;;9.11
70417;BMP280;57839;51.332;12.410;2024-02-23T05:33:13;98136.38;;;9.09
70417;BMP280;57839;51.332;12.410;2024-02-23T05:35:39;98123.34;;;9.11
70417;BMP280;57839;51.332;12.410;2024-02-23T05:38:04;98138.56;;;9.14
70417;BMP280;57839;51.332;12.410;2024-02-23T05:40:31;98155.38;;;9.15
70417;BMP280;57839;51.332;12.410;2024-02-23T05:42:57;98155.00;;;9.16
70417;BMP280;57839;51.332;12.410;2024-02-23T05:45:23;98163.41;;;9.15
70417;BMP280;57839;51.332;12.410;2024-02-23T05:47:48;98154.22;;;9.16
70417;BMP280;57839;51.332;12.410;2024-02-23T05:50:14;98175.22;;;9.17
70417;BMP280;57839;51.332;12.410;2024-02-23T05:52:39;98158.75;;;9.22
70417;BMP280;57839;51.332;12.410;2024-02-23T05:55:05;98173.78;;;9.13
70417;BMP280;57839;51.332;12.410;2024-02-23T05:57:31;98172.59;;;9.14
70417;BMP280;57839;51.332;12.410;2024-02-23T05:59:57;98172.59;;;9.14
70417;BMP280;57839;51.332;12.410;2024-02-23T06:02:22;98171.91;;;9.10
70417;BMP280;57839;51.332;12.410;2024-02-23T06:04:48;98186.41;;;9.09
70417;BMP280;57839;51.332;12.410;2024-02-23T06:07:13;98196.41;;;9.05
70417;BMP280;57839;51.332;12.410;2024-02-23T06:09:41;98204.06;;;9.03
70417;BMP280;57839;51.332;12.410;2024-02-23T06:12:06;98190.72;;;9.03
70417;BMP280;57839;51.332;12.410;2024-02-23T06:14:31;98191.50;;;9.00
70417;BMP280;57839;51.332;12.410;2024-02-23T06:16:57;98211.34;;;9.02
70417;BMP280;57839;51.332;12.410;2024-02-23T06:19:23;98222.41;;;9.04
70417;BMP280;57839;51.332;12.410;2024-02-23T06:21:48;98220.47;;;9.05
70417;BMP280;57839;51.332;12.410;2024-02-23T06:24:15;98200.69;;;8.99
70417;BMP280;57839;51.332;12.410;2024-02-23T06:26:41;98233.59;;;8.96
70417;BMP280;57839;51.332;12.410;2024-02-23T06:29:06;98243.09;;;8.97
70417;BMP280;57839;51.332;12.410;2024-02-23T06:31:33;98243.09;;;8.97
70417;BMP280;57839;51.332;12.410;2024-02-23T06:33:59;98244.69;;;8.94
70417;BMP280;57839;51.332;12.410;2024-02-23T06:36:25;98259.91;;;8.97
70417;BMP280;57839;51.332;12.410;2024-02-23T06:38:50;98258.03;;;8.94
70417;BMP280;57839;51.332;12.410;2024-02-23T06:41:16;98258.38;;;8.96
70417;BMP280;57839;51.332;12.410;2024-02-23T06:43:42;98264.16;;;8.95
70417;BMP280;57839;51.332;12.410;2024-02-23T06:46:07;98251.94;;;8.94
70417;BMP280;57839;51.332;12.410;2024-02-23T06:48:36;98248.13;;;8.95
70417;BMP280;57839;51.332;12.410;2024-02-23T06:51:02;98261.88;;;8.93
70417;BMP280;57839;51.332;12.410;2024-02-23T06:53:28;98264.53;;;8.93
70417;BMP280;57839;51.332;12.410;2024-02-23T06:55:54;98280.53;;;8.97
70417;BMP280;57839;51.332;12.410;2024-02-23T06:58:19;98280.53;;;8.97
70417;BMP280;57839;51.332;12.410;2024-02-23T07:00:45;98257.66;;;8.96
70417;BMP280;57839;51.332;12.410;2024-02-23T07:03:11;98257.66;;;8.96
70417;BMP280;57839;51.332;12.410;2024-02-23T07:05:36;98251.97;;;8.90
70417;BMP280;57839;51.332;12.410;2024-02-23T07:08:02;98255.09;;;8.85
70417;BMP280;57839;51.332;12.410;2024-02-23T07:10:27;98254.34;;;8.81
70417;BMP280;57839;51.332;12.410;2024-02-23T07:12:53;98254.34;;;8.81
70417;BMP280;57839;51.332;12.410;2024-02-23T07:15:21;98291.75;;;8.84
70417;BMP280;57839;51.332;12.410;2024-02-23T07:17:47;98291.75;;;8.84
70417;BMP280;57839;51.332;12.410;2024-02-23T07:20:12;98296.34;;;8.84
70417;BMP280;57839;51.332;12.410;2024-02-23T07:22:38;98274.63;;;8.78
70417;BMP280;57839;51.332;12.410;2024-02-23T07:25:04;98275.47;;;8.72
70417;BMP280;57839;51.332;12.410;2024-02-23T07:27:30;98304.47;;;8.73
70417;BMP280;57839;51.332;12.410;2024-02-23T07:29:56;98305.63;;;8.72
70417;BMP280;57839;51.332;12.410;2024-02-23T07:32:21;98302.22;;;8.72
70417;BMP280;57839;51.332;12.410;2024-02-23T07:34:46;98318.25;;;8.72
70417;BMP280;57839;51.332;12.410;2024-02-23T07:37:13;98316.72;;;8.71
70417;BMP280;57839;51.332;12.410;2024-02-23T07:39:38;98342.66;;;8.74
70417;BMP280;57839;51.332;12.410;2024-02-23T07:42:03;98364.03;;;8.74
70417;BMP280;57839;51.332;12.410;2024-02-23T07:44:31;98358.28;;;8.75
70417;BMP280;57839;51.332;12.410;2024-02-23T07:46:56;98370.91;;;8.75
70417;BMP280;57839;51.332;12.410;2024-02-23T07:49:23;98375.09;;;8.76
70417;BMP280;57839;51.332;12.410;2024-02-23T07:51:49;98385.75;;;8.79
70417;BMP280;57839;51.332;12.410;2024-02-23T07:54:14;98372.38;;;8.79
70417;BMP280;57839;51.332;12.410;2024-02-23T07:56:40;98365.88;;;8.80
70417;BMP280;57839;51.332;12.410;2024-02-23T07:59:05;98369.69;;;8.83
70417;BMP280;57839;51.332;12.410;2024-02-23T08:01:30;98383.44;;;8.78
70417;BMP280;57839;51.332;12.410;2024-02-23T08:03:56;98375.44;;;8.78
70417;BMP280;57839;51.332;12.410;2024-02-23T08:06:22;98383.06;;;8.79
70417;BMP280;57839;51.332;12.410;2024-02-23T08:08:48;98382.72;;;8.77
70417;BMP280;57839;51.332;12.410;2024-02-23T08:11:13;98402.16;;;8.78
70417;BMP280;57839;51.332;12.410;2024-02-23T08:13:39;98406.34;;;8.79
70417;BMP280;57839;51.332;12.410;2024-02-23T08:16:04;98415.13;;;8.83
70417;BMP280;57839;51.332;12.410;2024-02-23T08:18:31;98384.91;;;8.86
70417;BMP280;57839;51.332;12.410;2024-02-23T08:20:56;98391.38;;;8.92
70417;BMP280;57839;51.332;12.410;2024-02-23T08:23:23;98397.84;;;8.91
70417;BMP280;57839;51.332;12.410;2024-02-23T08:25:48;98387.53;;;8.93
70417;BMP280;57839;51.332;12.410;2024-02-23T08:28:13;98385.56;;;8.97
70417;BMP280;57839;51.332;12.410;2024-02-23T08:30:39;98389.81;;;8.95
70417;BMP280;57839;51.332;12.410;2024-02-23T08:33:04;98376.00;;;9.00
70417;BMP280;57839;51.332;12.410;2024-02-23T08:35:30;98382.84;;;9.04
70417;BMP280;57839;51.332;12.410;2024-02-23T08:37:56;98375.22;;;9.03
70417;BMP280;57839;51.332;12.410;2024-02-23T08:40:21;98383.53;;;9.12
70417;BMP280;57839;51.332;12.410;2024-02-23T08:42:47;98367.78;;;9.17
70417;BMP280;57839;51.332;12.410;2024-02-23T08:45:12;98383.81;;;9.21
70417;BMP280;57839;51.332;12.410;2024-02-23T08:47:38;98391.47;;;9.22
70417;BMP280;57839;51.332;12.410;2024-02-23T08:50:04;98391.75;;;9.28
70417;BMP280;57839;51.332;12.410;2024-02-23T08:52:29;98387.13;;;9.32
70417;BMP280;57839;51.332;12.410;2024-02-23T08:54:55;98384.38;;;9.39
70417;BMP280;57839;51.332;12.410;2024-02-23T08:57:20;98391.25;;;9.40
70417;BMP280;57839;51.332;12.410;2024-02-23T08:59:47;98399.19;;;9.43
70417;BMP280;57839;51.332;12.410;2024-02-23T09:02:13;98399.59;;;9.45
70417;BMP280;57839;51.332;12.410;2024-02-23T09:04:38;98407.63;;;9.45
70417;BMP280;57839;51.332;12.410;2024-02-23T09:07:04;98420.50;;;9.54
70417;BMP280;57839;51.332;12.410;2024-02-23T09:09:30;98428.06;;;9.63
70417;BMP280;57839;51.332;12.410;2024-02-23T09:11:55;98432.22;;;9.67
70417;BMP280;57839;51.332;12.410;2024-02-23T09:14:21;98434.84;;;9.71
70417;BMP280;57839;51.332;12.410;2024-02-23T09:16:46;98427.47;;;9.78
70417;BMP280;57839;51.332;12.410;2024-02-23T09:19:12;98426.63;;;9.85
70417;BMP280;57839;51.332;12.410;2024-02-23T09:21:38;98416.97;;;9.91
70417;BMP280;57839;51.332;12.410;2024-02-23T09:24:04;98417.31;;;9.96
70417;BMP280;57839;51.332;12.410;2024-02-23T09:26:29;98433.25;;;10.03
70417;BMP280;57839;51.332;12.410;2024-02-23T09:28:55;98436.78;;;9.97
70417;BMP280;57839;51.332;12.410;2024-02-23T09:31:20;98433.69;;;10.02
70417;BMP280;57839;51.332;12.410;2024-02-23T09:33:46;98434.34;;;10.09
70417;BMP280;57839;51.332;12.410;2024-02-23T09:36:12;98424.41;;;10.10
70417;BMP280;57839;51.332;12.410;2024-02-23T09:38:37;98419.81;;;10.10
70417;BMP280;57839;51.332;12.410;2024-02-23T09:41:03;98415.88;;;10.15
70417;BMP280;57839;51.332;12.410;2024-02-23T09:43:29;98415.00;;;10.25
70417;BMP280;57839;51.332;12.410;2024-02-23T09:45:57;98426.09;;;10.23
70417;BMP280;57839;51.332;12.410;2024-02-23T09:48:22;98424.47;;;10.29
70417;BMP280;57839;51.332;12.410;2024-02-23T09:50:49;98425.53;;;10.35
70417;BMP280;57839;51.332;12.410;2024-02-23T09:53:14;98430.59;;;10.30
70417;BMP280;57839;51.332;12.410;2024-02-23T09:55:40;98440.44;;;10.36
70417;BMP280;57839;51.332;12.410;2024-02-23T09:58:06;98431.06;;;10.52
70417;BMP280;57839;51.332;12.410;2024-02-23T10:00:33;98438.25;;;10.55
70417;BMP280;57839;51.332;12.410;2024-02-23T10:03:00;98442.34;;;10.63
70417;BMP280;57839;51.332;12.410;2024-02-23T10:05:29;98435.03;;;10.67
70417;BMP280;57839;51.332;12.410;2024-02-23T10:07:54;98438.78;;;10.69
70417;BMP280;57839;51.332;12.410;2024-02-23T10:10:29;98443.47;;;10.65
70417;BMP280;57839;51.332;12.410;2024-02-23T10:12:55;98452.03;;;10.57
70417;BMP280;57839;51.332;12.410;2024-02-23T10:15:20;98434.81;;;10.54
70417;BMP280;57839;51.332;12.410;2024-02-23T10:17:45;98434.44;;;10.56
70417;BMP280;57839;51.332;12.410;2024-02-23T10:20:11;98425.97;;;10.57
70417;BMP280;57839;51.332;12.410;2024-02-23T10:22:36;98435.03;;;10.67
70417;BMP280;57839;51.332;12.410;2024-02-23T10:25:02;98449.09;;;10.71
70417;BMP280;57839;51.332;12.410;2024-02-23T10:27:27;98460.72;;;10.87
70417;BMP280;57839;51.332;12.410;2024-02-23T10:29:53;98457.50;;;10.96
70417;BMP280;57839;51.332;12.410;2024-02-23T10:32:19;98466.59;;;11.02
70417;BMP280;57839;51.332;12.410;2024-02-23T10:34:45;98458.91;;;11.04
70417;BMP280;57839;51.332;12.410;2024-02-23T10:37:12;98464.31;;;11.00
70417;BMP280;57839;51.332;12.410;2024-02-23T10:39:37;98467.94;;;11.13
70417;BMP280;57839;51.332;12.410;2024-02-23T10:42:04;98485.88;;;11.17
70417;BMP280;57839;51.332;12.410;2024-02-23T10:44:30;98485.44;;;11.22
70417;BMP280;57839;51.332;12.410;2024-02-23T10:46:56;98473.19;;;11.21
70417;BMP280;57839;51.332;12.410;2024-02-23T10:49:23;98487.66;;;11.03
70417;BMP280;57839;51.332;12.410;2024-02-23T10:51:51;98469.28;;;11.02
70417;BMP280;57839;51.332;12.410;2024-02-23T10:54:17;98477.69;;;11.04
70417;BMP280;57839;51.332;12.410;2024-02-23T10:56:49;98477.06;;;10.96
70417;BMP280;57839;51.332;12.410;2024-02-23T10:59:14;98477.59;;;10.88
70417;BMP280;57839;51.332;12.410;2024-02-23T11:01:52;98483.69;;;10.88
70417;BMP280;57839;51.332;12.410;2024-02-23T11:04:19;98491.78;;;10.85
70417;BMP280;57839;51.332;12.410;2024-02-23T11:06:51;98506.41;;;10.80
70417;BMP280;57839;51.332;12.410;2024-02-23T11:09:20;98495.06;;;10.73
70417;BMP280;57839;51.332;12.410;2024-02-23T11:11:55;98500.81;;;10.71
70417;BMP280;57839;51.332;12.410;2024-02-23T11:14:30;98488.97;;;10.69
70417;BMP280;57839;51.332;12.410;2024-02-23T11:16:57;98508.56;;;10.66
70417;BMP280;57839;51.332;12.410;2024-02-23T11:19:31;98504.00;;;10.63
70417;BMP280;57839;51.332;12.410;2024-02-23T11:21:57;98503.31;;;10.59
70417;BMP280;57839;51.332;12.410;2024-02-23T11:24:25;98506.88;;;10.52
70417;BMP280;57839;51.332;12.410;2024-02-23T11:26:55;98498.66;;;10.63
70417;BMP280;57839;51.332;12.410;2024-02-23T11:29:21;98498.66;;;10.63
70417;BMP280;57839;51.332;12.410;2024-02-23T11:31:47;98508.34;;;10.53
70417;BMP280;57839;51.332;12.410;2024-02-23T11:34:12;98508.34;;;10.53
70417;BMP280;57839;51.332;12.410;2024-02-23T11:36:38;98503.44;;;10.52
70417;BMP280;57839;51.332;12.410;2024-02-23T11:39:03;98503.44;;;10.52
70417;BMP280;57839;51.332;12.410;2024-02-23T11:41:29;98505.38;;;10.48
70417;BMP280;57839;51.332;12.410;2024-02-23T11:43:54;98505.38;;;10.48
70417;BMP280;57839;51.332;12.410;2024-02-23T11:46:20;98494.91;;;10.57
70417;BMP280;57839;51.332;12.410;2024-02-23T11:48:46;98494.91;;;10.57
70417;BMP280;57839;51.332;12.410;2024-02-23T11:51:14;98501.91;;;10.51
70417;BMP280;57839;51.332;12.410;2024-02-23T11:53:40;98501.91;;;10.51
70417;BMP280;57839;51.332;12.410;2024-02-23T11:56:05;98486.25;;;10.46
70417;BMP280;57839;51.332;12.410;2024-02-23T11:58:32;98486.25;;;10.46
70417;BMP280;57839;51.332;12.410;2024-02-23T12:00:57;98501.59;;;10.45
70417;BMP280;57839;51.332;12.410;2024-02-23T12:03:23;98500.13;;;10.41
70417;BMP280;57839;51.332;12.410;2024-02-23T12:05:50;98498.59;;;10.40
70417;BMP280;57839;51.332;12.410;2024-02-23T12:08:15;98508.91;;;10.41
70417;BMP280;57839;51.332;12.410;2024-02-23T12:10:42;98516.59;;;10.39
70417;BMP280;57839;51.332;12.410;2024-02-23T12:13:08;98500.22;;;10.33
70417;BMP280;57839;51.332;12.410;2024-02-23T12:15:33;98511.38;;;10.32
70417;BMP280;57839;51.332;12.410;2024-02-23T12:17:59;98496.03;;;10.32
70417;BMP280;57839;51.332;12.410;2024-02-23T12:20:27;98502.19;;;10.29
70417;BMP280;57839;51.332;12.410;2024-02-23T12:22:54;98502.19;;;10.29
70417;BMP280;57839;51.332;12.410;2024-02-23T12:25:20;98496.44;;;10.31
70417;BMP280;57839;51.332;12.410;2024-02-23T12:27:46;98487.69;;;10.27
70417;BMP280;57839;51.332;12.410;2024-02-23T12:30:14;98482.63;;;10.32
70417;BMP280;57839;51.332;12.410;2024-02-23T12:32:40;98494.88;;;10.33
70417;BMP280;57839;51.332;12.410;2024-02-23T12:35:06;98493.00;;;10.30
70417;BMP280;57839;51.332;12.410;2024-02-23T12:37:34;98492.63;;;10.28
70417;BMP280;57839;51.332;12.410;2024-02-23T12:39:59;98486.84;;;10.33
70417;BMP280;57839;51.332;12.410;2024-02-23T12:42:25;98487.19;;;10.35
70417;BMP280;57839;51.332;12.410;2024-02-23T12:44:51;98496.31;;;10.38
70417;BMP280;57839;51.332;12.410;2024-02-23T12:47:16;98522.09;;;10.32
70417;BMP280;57839;51.332;12.410;2024-02-23T12:49:41;98499.19;;;10.27
70417;BMP280;57839;51.332;12.410;2024-02-23T12:52:07;98499.19;;;10.24
70417;BMP280;57839;51.332;12.410;2024-02-23T12:54:33;98498.56;;;10.16
70417;BMP280;57839;51.332;12.410;2024-02-23T12:56:58;98492.03;;;10.17
70417;BMP280;57839;51.332;12.410;2024-02-23T12:59:23;98489.41;;;10.14
70417;BMP280;57839;51.332;12.410;2024-02-23T13:01:49;98494.38;;;10.12
70417;BMP280;57839;51.332;12.410;2024-02-23T13:04:14;98494.31;;;10.19
70417;BMP280;57839;51.332;12.410;2024-02-23T13:06:40;98499.22;;;10.20
70417;BMP280;57839;51.332;12.410;2024-02-23T13:09:05;98504.56;;;10.24
70417;BMP280;57839;51.332;12.410;2024-02-23T13:11:34;98527.88;;;10.27
70417;BMP280;57839;51.332;12.410;2024-02-23T13:14:00;98505.75;;;10.23
70417;BMP280;57839;51.332;12.410;2024-02-23T13:16:25;98508.00;;;10.24
70417;BMP280;57839;51.332;12.410;2024-02-23T13:18:51;98501.91;;;10.20
70417;BMP280;57839;51.332;12.410;2024-02-23T13:21:17;98493.84;;;10.24
70417;BMP280;57839;51.332;12.410;2024-02-23T13:23:43;98507.66;;;10.22
70417;BMP280;57839;51.332;12.410;2024-02-23T13:26:09;98502.66;;;10.24
70417;BMP280;57839;51.332;12.410;2024-02-23T13:28:38;98503.00;;;10.26
70417;BMP280;57839;51.332;12.410;2024-02-23T13:31:04;98499.09;;;10.34
70417;BMP280;57839;51.332;12.410;2024-02-23T13:33:29;98489.09;;;10.35
70417;BMP280;57839;51.332;12.410;2024-02-23T13:35:54;98494.09;;;10.33
70417;BMP280;57839;51.332;12.410;2024-02-23T13:38:20;98497.22;;;10.28
70417;BMP280;57839;51.332;12.410;2024-02-23T13:40:46;98497.22;;;10.28
70417;BMP280;57839;51.332;12.410;2024-02-23T13:43:12;98485.81;;;10.24
70417;BMP280;57839;51.332;12.410;2024-02-23T13:45:47;98496.81;;;10.29
70417;BMP280;57839;51.332;12.410;2024-02-23T13:48:14;98488.88;;;10.26
70417;BMP280;57839;51.332;12.410;2024-02-23T13:50:39;98488.88;;;10.26
70417;BMP280;57839;51.332;12.410;2024-02-23T13:53:04;98490.28;;;10.34